Time;durP1;ratioP1;P1;durP2;ratioP2;P2;SDS_P1;SDS_P2;PMS_P1;PMS_P2;Temp;Humidity;BMP_temperature;BMP_pressure;BME280_temperature;BME280_humidity;BME280_pressure;Samples;Min_cycle;Max_cycle;Signal;HPM_P1;HPM_P2
2022/01/20 00:03:20;;;;;;;39.13;20.35;;;;;;;-2.52;100.00;99178.19;1722712;82;20981;-70
2022/01/20 00:27:53;;;;;;;27.82;15.85;;;;;;;-2.50;100.00;99149.92;1729077;82;21657;-71
2022/01/20 00:38:22;;;;;;;28.77;15.20;;;;;;;-2.50;100.00;99136.78;1631948;87;21185;-70
2022/01/20 00:40:51;;;;;;;47.70;24.05;;;;;;;-2.49;100.00;99128.73;1646037;85;21010;-71
2022/01/20 00:43:18;;;;;;;27.80;14.23;;;;;;;-2.46;100.00;99123.61;1629399;87;21585;-69
2022/01/20 00:45:47;;;;;;;36.50;21.70;;;;;;;-2.46;100.00;99121.80;1623098;86;21019;-70
2022/01/20 00:48:13;;;;;;;35.25;18.98;;;;;;;-2.44;100.00;99109.30;1634427;86;21019;-70
2022/01/20 00:50:40;;;;;;;33.25;16.70;;;;;;;-2.42;100.00;99108.63;1634196;87;21136;-71
2022/01/20 00:53:07;;;;;;;40.48;22.70;;;;;;;-2.42;100.00;99103.36;1629579;86;21622;-70
2022/01/20 00:55:34;;;;;;;42.00;21.82;;;;;;;-2.41;100.00;99098.41;1635917;87;21473;-71
2022/01/20 00:58:01;;;;;;;29.75;14.03;;;;;;;-2.42;100.00;99089.41;1616026;87;21034;-68
2022/01/20 01:00:28;;;;;;;30.90;17.40;;;;;;;-2.40;100.00;99096.12;1598783;87;21021;-69
2022/01/20 01:02:56;;;;;;;36.42;19.07;;;;;;;-2.37;100.00;99088.37;1644642;85;21117;-71
2022/01/20 01:05:24;;;;;;;28.73;16.32;;;;;;;-2.40;100.00;99085.60;1642143;85;20994;-70
2022/01/20 01:07:55;;;;;;;46.05;21.12;;;;;;;-2.43;100.00;99071.48;1640835;86;21460;-70
2022/01/20 01:10:27;;;;;;;38.80;20.88;;;;;;;-2.50;100.00;99076.34;1639489;86;21000;-71
2022/01/20 01:13:09;;;;;;;41.60;19.70;;;;;;;-2.55;100.00;99074.25;1643234;85;20888;-72
2022/01/20 01:15:38;;;;;;;40.08;22.75;;;;;;;-2.62;100.00;99075.49;1719517;82;21166;-71
2022/01/20 01:23:39;;;;;;;35.48;19.73;;;;;;;-2.80;100.00;99072.38;1718572;81;21004;-71
2022/01/20 01:26:08;;;;;;;40.40;22.20;;;;;;;-2.82;100.00;99069.95;1726180;81;21065;-72
2022/01/20 01:28:36;;;;;;;44.88;21.23;;;;;;;-2.86;100.00;99071.80;1715813;82;21148;-71
2022/01/20 01:31:40;;;;;;;;;;;;;;;-2.90;100.00;99060.01;1720683;82;20923;-71
2022/01/20 01:33:49;;;;;;;29.32;14.60;;;;;;;-2.90;100.00;99058.69;1709495;82;20450;-71
2022/01/20 01:36:12;;;;;;;45.28;24.10;;;;;;;-2.92;100.00;99061.48;1711512;83;20930;-70
2022/01/20 01:38:37;;;;;;;35.68;18.02;;;;;;;-2.97;100.00;99059.89;1714189;82;20974;-72
2022/01/20 01:41:11;;;;;;;44.65;24.52;;;;;;;-3.00;100.00;99047.13;1728368;82;21165;-71
2022/01/20 01:43:42;;;;;;;30.37;16.70;;;;;;;-3.06;100.00;99047.36;1732388;82;20888;-70
2022/01/20 01:46:11;;;;;;;40.92;19.20;;;;;;;-3.12;100.00;99041.99;1704431;84;20957;-71
2022/01/20 01:48:41;;;;;;;42.03;19.12;;;;;;;-3.17;100.00;99037.27;1702123;84;20960;-71
2022/01/20 01:51:11;;;;;;;38.23;21.00;;;;;;;-3.21;100.00;99035.98;1696818;84;21573;-70
2022/01/20 01:53:41;;;;;;;46.55;23.32;;;;;;;-3.21;100.00;99028.61;1685075;84;21178;-71
2022/01/20 01:56:08;;;;;;;30.25;19.02;;;;;;;-3.22;100.00;99022.55;1684626;84;20983;-70
2022/01/20 01:58:36;;;;;;;44.00;21.62;;;;;;;-3.27;100.00;99023.59;1735749;82;27042;-71
2022/01/20 02:01:04;;;;;;;47.13;26.37;;;;;;;-3.30;100.00;99013.45;1706087;82;21052;-71
2022/01/20 02:03:34;;;;;;;48.25;28.20;;;;;;;-3.34;100.00;99006.91;1707836;83;21098;-70
2022/01/20 02:19:51;;;;;;;76.92;29.25;;;;;;;-3.51;100.00;98978.68;1720609;82;21146;-71
2022/01/20 02:22:16;;;;;;;97.95;38.65;;;;;;;-3.50;100.00;98983.77;1710815;82;20951;-71
2022/01/20 02:24:45;;;;;;;;;;;;;;;-3.55;100.00;98976.92;1725861;83;20924;-70
2022/01/20 02:27:11;;;;;;;85.85;37.33;;;;;;;-3.54;100.00;98981.66;1711453;83;20110;-70
2022/01/20 02:29:41;;;;;;;77.92;37.35;;;;;;;-3.59;100.00;98977.45;1704045;83;21024;-70
2022/01/20 02:32:10;;;;;;;49.95;25.55;;;;;;;-3.62;100.00;98986.98;1694112;84;21161;-71
2022/01/20 02:34:37;;;;;;;;;;;;;;;-3.66;100.00;98977.33;1724525;83;21039;-70
2022/01/20 02:37:09;;;;;;;38.15;17.82;;;;;;;-3.68;100.00;98973.56;1721785;83;20152;-69
2022/01/20 02:44:57;;;;;;;34.38;17.50;;;;;;;-3.69;100.00;98967.20;1746443;81;21817;-70
2022/01/20 02:47:28;;;;;;;40.12;21.15;;;;;;;-3.72;100.00;98964.94;1696746;84;21014;-71
2022/01/20 02:49:56;;;;;;;33.48;19.17;;;;;;;-3.75;100.00;98954.77;1699383;84;20954;-69
2022/01/20 02:52:24;;;;;;;48.10;26.00;;;;;;;-3.77;100.00;98947.09;1698858;84;21079;-71
2022/01/20 02:54:51;;;;;;;52.73;27.60;;;;;;;-3.81;100.00;98943.69;1695009;84;20990;-71
2022/01/20 02:57:18;;;;;;;56.50;25.48;;;;;;;-3.83;100.00;98940.42;1693963;84;21167;-71
2022/01/20 02:59:46;;;;;;;40.52;20.88;;;;;;;-3.91;100.00;98931.63;1694155;84;21065;-71
2022/01/20 03:02:13;;;;;;;50.48;25.05;;;;;;;-3.95;100.00;98922.47;1695779;84;20898;-71
2022/01/20 03:04:40;;;;;;;33.58;17.55;;;;;;;-3.98;100.00;98924.14;1692967;84;20914;-71
2022/01/20 03:07:10;;;;;;;47.17;25.60;;;;;;;-4.01;100.00;98914.52;1749587;81;21044;-71
2022/01/20 03:09:38;;;;;;;38.10;19.73;;;;;;;-3.99;100.00;98913.34;1749472;81;21521;-69
2022/01/20 03:12:05;;;;;;;49.63;25.70;;;;;;;-4.02;100.00;98889.27;1694019;84;20992;-72
2022/01/20 03:14:33;;;;;;;45.08;22.48;;;;;;;-3.99;100.00;98909.41;1663126;86;21026;-71
2022/01/20 03:17:00;;;;;;;44.33;20.48;;;;;;;-4.05;100.00;98905.36;1708963;83;21040;-71
2022/01/20 03:19:28;;;;;;;45.90;23.22;;;;;;;-4.07;100.00;98901.59;1726749;83;21032;-71
2022/01/20 03:21:55;;;;;;;27.50;16.07;;;;;;;-4.10;100.00;98885.72;1727185;82;21127;-72
2022/01/20 03:24:22;;;;;;;36.95;17.70;;;;;;;-4.11;100.00;98885.41;1726955;83;21009;-71
2022/01/20 03:26:49;;;;;;;43.48;21.68;;;;;;;-4.12;100.00;98871.16;1727152;83;20932;-71
2022/01/20 03:29:15;;;;;;;41.88;20.23;;;;;;;-4.13;100.00;98872.97;1727195;83;21019;-71
2022/01/20 03:31:42;;;;;;;45.85;21.42;;;;;;;-4.15;100.00;98874.14;1705211;83;20897;-71
2022/01/20 03:34:09;;;;;;;45.15;20.23;;;;;;;-4.18;100.00;98866.14;1727854;83;21152;-70
2022/01/20 03:36:38;;;;;;;;;;;;;;;-4.21;100.00;98865.19;1730445;82;21558;-71
2022/01/20 03:39:09;;;;;;;30.65;16.90;;;;;;;-4.22;100.00;98862.23;1702794;82;20130;-71
2022/01/20 03:41:37;;;;;;;41.10;20.30;;;;;;;-4.25;100.00;98861.27;1701540;83;21577;-70
2022/01/20 03:44:06;;;;;;;29.42;16.15;;;;;;;-4.27;100.00;98859.32;1700817;83;20985;-72
2022/01/20 03:46:33;;;;;;;29.82;17.45;;;;;;;-4.28;100.00;98855.08;1698751;84;21091;-71
2022/01/20 03:49:13;;;;;;;57.20;26.55;;;;;;;-4.31;100.00;98854.12;1698696;84;20943;-71
2022/01/20 03:51:37;;;;;;;74.17;33.90;;;;;;;-4.32;100.00;98854.59;1698336;84;21044;-70
2022/01/20 03:54:04;;;;;;;57.05;27.42;;;;;;;-4.34;100.00;98847.91;1698510;84;21147;-71
2022/01/20 03:56:50;;;;;;;46.28;21.33;;;;;;;-4.33;100.00;98846.43;1699181;84;20953;-70
2022/01/20 03:59:28;;;;;;;26.70;14.60;;;;;;;-4.33;100.00;98834.64;1651473;84;21867;-69
2022/01/20 04:01:54;;;;;;;38.35;23.77;;;;;;;-4.33;100.00;98837.27;1669184;84;20986;-70
2022/01/20 04:04:23;;;;;;;35.00;17.32;;;;;;;-4.36;100.00;98841.55;1723215;81;21516;-70
2022/01/20 04:06:51;;;;;;;32.48;15.45;;;;;;;-4.38;100.00;98827.00;1720229;82;21517;-71
2022/01/20 04:09:18;;;;;;;32.05;19.12;;;;;;;-4.41;100.00;98822.92;1720913;82;20946;-70
2022/01/20 04:11:45;;;;;;;31.40;14.35;;;;;;;-4.42;100.00;98827.83;1721366;82;21941;-71
2022/01/20 04:14:13;;;;;;;29.60;15.10;;;;;;;-4.42;100.00;98826.52;1725641;81;20837;-71
2022/01/20 04:17:02;;;;;;;34.30;17.62;;;;;;;-4.43;100.00;98818.84;1724963;82;20982;-69
2022/01/20 04:19:21;;;;;;;23.60;15.18;;;;;;;-4.47;100.00;98824.92;1717743;81;21042;-70
2022/01/20 04:21:49;;;;;;;33.80;15.80;;;;;;;-4.50;100.00;98823.16;1723252;82;20991;-70
2022/01/20 04:24:16;;;;;;;21.45;12.50;;;;;;;-4.55;100.00;98828.41;1724538;82;22079;-70
2022/01/20 04:26:45;;;;;;;32.90;15.13;;;;;;;-4.56;100.00;98819.41;1721971;81;21421;-69
2022/01/20 04:29:12;;;;;;;26.40;16.90;;;;;;;-4.61;100.00;98804.22;1719900;82;21006;-70
2022/01/20 04:31:40;;;;;;;25.50;15.90;;;;;;;-4.66;100.00;98811.78;1728131;81;21220;-72
2022/01/20 04:34:07;;;;;;;43.25;18.02;;;;;;;-4.67;100.00;98799.69;1729948;81;21062;-70
2022/01/20 04:36:38;;;;;;;29.10;17.40;;;;;;;-4.66;100.00;98809.16;1729961;83;21838;-70
2022/01/20 04:39:10;;;;;;;36.53;14.73;;;;;;;-4.68;100.00;98796.73;1676303;84;21001;-71
2022/01/20 04:41:37;;;;;;;37.05;17.80;;;;;;;-4.71;100.00;98792.35;1700275;83;21212;-72
2022/01/20 04:44:11;;;;;;;32.95;16.77;;;;;;;-4.75;100.00;98796.64;1695915;83;21050;-70
2022/01/20 04:46:43;;;;;;;24.02;13.18;;;;;;;-4.75;100.00;98789.28;1696658;83;21035;-70
2022/01/20 04:57:06;;;;;;;32.20;15.32;;;;;;;-4.80;100.00;98778.48;1724788;82;21435;-72
2022/01/20 04:59:32;;;;;;;39.18;22.02;;;;;;;-4.82;100.00;98776.56;1744914;81;21561;-71
2022/01/20 05:01:58;;;;;;;27.40;16.90;;;;;;;-4.87;100.00;98782.81;1750990;81;21070;-70
2022/01/20 05:04:31;;;;;;;31.75;17.67;;;;;;;-4.89;100.00;98786.09;1692454;82;20857;-69
2022/01/20 05:07:17;;;;;;;39.65;19.23;;;;;;;-4.92;100.00;98783.80;1733198;81;21562;-69
2022/01/20 05:09:39;;;;;;;30.27;17.25;;;;;;;-4.94;100.00;98779.25;1752758;81;20925;-70
2022/01/20 05:12:11;;;;;;;31.48;16.57;;;;;;;-4.96;100.00;98780.23;1715957;83;21041;-72
2022/01/20 05:14:39;;;;;;;36.23;19.05;;;;;;;-4.96;100.00;98771.06;1714632;83;21579;-69
2022/01/20 05:17:06;;;;;;;59.18;25.65;;;;;;;-4.98;100.00;98774.84;1713511;83;21051;-70
2022/01/20 05:19:34;;;;;;;146.72;55.58;;;;;;;-5.04;100.00;98779.48;1757316;81;20862;-71
2022/01/20 05:22:00;;;;;;;49.25;23.45;;;;;;;-5.08;100.00;98771.64;1748807;81;21008;-72
2022/01/20 05:24:29;;;;;;;;;;;;;;;-5.10;100.00;98751.36;1707691;83;20980;-73
2022/01/20 05:26:57;;;;;;;36.93;20.68;;;;;;;-5.12;100.00;98767.26;1687237;83;20794;-70
2022/01/20 05:29:25;;;;;;;34.70;17.37;;;;;;;-5.13;100.00;98755.14;1665288;84;20930;-72
2022/01/20 05:31:52;;;;;;;27.25;15.78;;;;;;;-5.14;100.00;98757.45;1683508;84;21508;-72
2022/01/20 05:34:19;;;;;;;35.78;18.00;;;;;;;-5.14;100.00;98753.53;1708691;83;21016;-72
2022/01/20 05:36:47;;;;;;;27.15;15.03;;;;;;;-5.20;100.00;98752.39;1756299;81;20957;-71
2022/01/20 05:39:16;;;;;;;37.63;19.30;;;;;;;-5.23;100.00;98748.81;1722760;83;21156;-70
2022/01/20 05:41:45;;;;;;;34.03;21.15;;;;;;;-5.22;100.00;98735.23;1755019;81;21530;-71
2022/01/20 05:44:13;;;;;;;40.75;18.15;;;;;;;-5.21;100.00;98752.58;1713235;83;20948;-71
2022/01/20 05:46:46;;;;;;;38.50;18.52;;;;;;;-5.27;100.00;98728.41;1721283;83;21008;-71
2022/01/20 05:49:11;;;;;;;29.63;16.12;;;;;;;-5.26;100.00;98744.44;1720074;82;21522;-71
2022/01/20 05:51:46;;;;;;;42.95;19.87;;;;;;;-5.29;100.00;98741.67;1753381;81;21225;-71
2022/01/20 05:54:13;;;;;;;36.35;18.95;;;;;;;-5.28;100.00;98739.86;1740663;81;21582;-70
2022/01/20 05:56:43;;;;;;;33.50;16.62;;;;;;;-5.26;100.00;98735.28;1714297;82;21000;-70
2022/01/20 05:59:12;;;;;;;36.75;20.72;;;;;;;-5.25;100.00;98746.05;1699241;82;21592;-71
2022/01/20 06:01:39;;;;;;;29.52;17.95;;;;;;;-5.24;100.00;98735.92;1692799;84;21027;-71
2022/01/20 06:04:08;;;;;;;33.18;15.88;;;;;;;-5.25;100.00;98732.97;1699053;83;21150;-71
2022/01/20 06:06:36;;;;;;;30.02;17.37;;;;;;;-5.22;100.00;98727.39;1699168;84;21007;-73
2022/01/20 06:09:04;;;;;;;40.12;19.02;;;;;;;-5.23;100.00;98736.23;1695975;83;20954;-72
2022/01/20 06:11:32;;;;;;;34.50;18.95;;;;;;;-5.26;100.00;98723.01;1683296;85;20974;-73
2022/01/20 06:13:59;;;;;;;35.83;17.12;;;;;;;-5.20;100.00;98731.96;1684481;85;21009;-72
2022/01/20 06:16:26;;;;;;;20.32;13.00;;;;;;;-5.18;100.00;98728.19;1685090;83;21551;-71
2022/01/20 06:18:55;;;;;;;23.18;14.80;;;;;;;-5.16;100.00;98721.48;1683367;85;20962;-70
2022/01/20 06:21:22;;;;;;;27.30;14.38;;;;;;;-5.10;100.00;98723.39;1686062;83;21525;-70
2022/01/20 06:23:51;;;;;;;28.30;14.43;;;;;;;-5.04;100.00;98731.87;1681777;84;20928;-73
2022/01/20 06:26:18;;;;;;;26.50;12.47;;;;;;;-4.98;100.00;98737.70;1684398;84;21597;-73
2022/01/20 06:28:45;;;;;;;30.17;16.32;;;;;;;-4.89;100.00;98737.66;1734316;81;21130;-71
2022/01/20 06:31:13;;;;;;;34.30;17.23;;;;;;;-4.82;100.00;98745.95;1728914;81;21015;-71
2022/01/20 06:33:40;;;;;;;30.10;16.62;;;;;;;-4.72;100.00;98740.98;1737483;81;20949;-72
2022/01/20 06:36:10;;;;;;;25.95;13.28;;;;;;;-4.72;100.00;98738.37;1751185;81;20992;-70
2022/01/20 06:38:38;;;;;;;25.70;14.10;;;;;;;-4.66;100.00;98744.20;1738102;81;21626;-71
2022/01/20 06:41:06;;;;;;;34.88;17.80;;;;;;;-4.58;100.00;98743.65;1721731;81;21510;-72
2022/01/20 06:43:35;;;;;;;28.10;14.90;;;;;;;-4.52;100.00;98718.55;1682991;84;21420;-69
2022/01/20 06:46:01;;;;;;;23.18;12.63;;;;;;;-4.48;100.00;98720.30;1684034;83;20928;-70
2022/01/20 06:48:46;;;;;;;26.73;14.65;;;;;;;-4.37;100.00;98720.70;1680791;83;21136;-71
2022/01/20 06:51:34;;;;;;;29.10;15.28;;;;;;;-4.20;100.00;98715.30;1651002;85;21086;-70
2022/01/20 06:54:01;;;;;;;38.60;18.57;;;;;;;-4.20;100.00;98689.10;1659092;85;21744;-69
2022/01/20 06:56:28;;;;;;;22.75;14.85;;;;;;;-4.25;100.00;98695.38;1655815;85;20965;-72
2022/01/20 06:58:55;;;;;;;27.62;14.78;;;;;;;-4.10;100.00;98704.86;1698596;82;21141;-71
2022/01/20 07:01:22;;;;;;;33.42;20.70;;;;;;;-3.85;100.00;98694.11;1722430;82;21007;-70
2022/01/20 07:03:49;;;;;;;37.38;18.60;;;;;;;-3.72;100.00;98696.11;1719588;82;21090;-70
2022/01/20 07:06:17;;;;;;;24.35;11.65;;;;;;;-3.75;100.00;98689.42;1725961;82;21556;-70
2022/01/20 07:08:51;;;;;;;25.82;13.35;;;;;;;-3.58;100.00;98686.57;1685089;83;21110;-72
2022/01/20 07:11:18;;;;;;;16.23;10.48;;;;;;;-3.48;100.00;98687.09;1757873;81;20956;-71
2022/01/20 07:13:45;;;;;;;37.40;18.87;;;;;;;-3.35;100.00;98692.50;1758157;81;20896;-72
2022/01/20 07:16:12;;;;;;;31.10;18.15;;;;;;;-3.17;100.00;98696.52;1758325;81;20976;-71
2022/01/20 07:18:39;;;;;;;23.42;12.35;;;;;;;-3.17;100.00;98692.08;1758197;81;21530;-71
2022/01/20 07:21:06;;;;;;;32.73;19.98;;;;;;;-3.12;100.00;98698.89;1758100;81;20880;-72
2022/01/20 07:23:34;;;;;;;35.83;21.27;;;;;;;-3.09;100.00;98692.45;1757295;81;21430;-71
2022/01/20 07:26:03;;;;;;;28.20;15.08;;;;;;;-3.04;100.00;98708.45;1761851;81;27038;-72
2022/01/20 07:28:30;;;;;;;22.60;13.80;;;;;;;-3.21;100.00;98706.56;1758096;81;20963;-71
2022/01/20 07:30:57;;;;;;;25.20;14.80;;;;;;;-3.15;100.00;98689.28;1758199;81;21558;-72
2022/01/20 07:33:25;;;;;;;24.15;14.55;;;;;;;-3.13;100.00;98683.34;1758216;81;20869;-73
2022/01/20 07:35:54;;;;;;;22.98;13.35;;;;;;;-3.21;100.00;98681.63;1758082;81;21410;-72
2022/01/20 07:38:21;;;;;;;36.40;18.73;;;;;;;-3.14;100.00;98690.89;1758083;81;20912;-71
2022/01/20 07:40:48;;;;;;;23.83;13.58;;;;;;;-3.05;100.00;98685.84;1757968;81;20940;-70
2022/01/20 07:43:15;;;;;;;27.87;13.08;;;;;;;-3.06;100.00;98685.54;1758128;81;21516;-72
2022/01/20 07:45:47;;;;;;;34.23;16.82;;;;;;;-3.06;100.00;98682.41;1758080;81;21011;-72
2022/01/20 07:48:30;;;;;;;32.98;14.53;;;;;;;-3.10;100.00;98686.91;1757704;81;20927;-71
2022/01/20 07:51:05;;;;;;;19.30;11.30;;;;;;;-3.03;100.00;98683.84;1757713;81;20900;-71
2022/01/20 07:53:36;;;;;;;36.90;17.57;;;;;;;-2.90;100.00;98685.27;1758101;81;21013;-72
2022/01/20 07:56:05;;;;;;;64.75;30.35;;;;;;;-2.72;100.00;98685.31;1758406;81;21523;-72
2022/01/20 07:58:34;;;;;;;72.53;30.12;;;;;;;-2.63;100.00;98674.48;1758046;81;20928;-70
2022/01/20 08:01:04;;;;;;;74.15;33.63;;;;;;;-2.63;100.00;98658.72;1760284;81;20915;-72
2022/01/20 08:03:31;;;;;;;84.15;44.08;;;;;;;-2.55;100.00;98674.04;1734295;81;21022;-73
2022/01/20 08:06:02;;;;;;;42.75;21.37;;;;;;;-2.56;100.00;98669.29;1758079;81;21030;-71
2022/01/20 08:08:33;;;;;;;30.27;19.30;;;;;;;-2.30;100.00;98670.47;1760280;81;21530;-70
2022/01/20 08:11:01;;;;;;;110.55;48.70;;;;;;;-2.07;100.00;98674.17;1706481;81;20978;-71
2022/01/20 08:13:28;;;;;;;194.07;69.82;;;;;;;-2.11;100.00;98645.31;1760836;81;20927;-72
2022/01/20 08:15:56;;;;;;;113.47;43.83;;;;;;;-1.87;100.00;98654.03;1760866;81;20941;-71
2022/01/20 08:18:25;;;;;;;296.00;99.92;;;;;;;-1.76;100.00;98667.95;1760489;81;20976;-71
2022/01/20 08:20:52;;;;;;;68.22;27.17;;;;;;;-1.47;100.00;98656.84;1760599;81;21977;-70
2022/01/20 08:23:20;;;;;;;37.28;18.70;;;;;;;-1.52;100.00;98665.32;1760625;81;20987;-72
2022/01/20 08:25:48;;;;;;;217.43;81.78;;;;;;;-1.24;100.00;98657.80;1760933;81;21247;-70
2022/01/20 08:28:17;;;;;;;104.83;60.60;;;;;;;-1.30;100.00;98664.68;1760848;81;20892;-72
2022/01/20 08:30:45;;;;;;;176.93;71.90;;;;;;;-1.17;100.00;98659.14;1760819;81;20919;-70
2022/01/20 08:33:13;;;;;;;145.38;60.05;;;;;;;-1.02;100.00;98657.13;1760887;81;21530;-71
2022/01/20 08:35:41;;;;;;;306.13;106.70;;;;;;;-0.61;100.00;98653.51;1760429;81;20971;-71
2022/01/20 08:38:10;;;;;;;54.40;22.90;;;;;;;-0.71;100.00;98655.72;1760564;81;20919;-70
2022/01/20 08:40:37;;;;;;;143.13;46.65;;;;;;;-0.74;100.00;98659.56;1760881;81;21927;-71
2022/01/20 08:43:06;;;;;;;173.32;54.73;;;;;;;-0.77;100.00;98645.48;1760750;81;21562;-71
2022/01/20 08:45:35;;;;;;;258.65;81.47;;;;;;;-0.89;100.00;98644.47;1760735;81;21172;-70
2022/01/20 08:48:02;;;;;;;224.88;75.72;;;;;;;-0.88;100.00;98642.16;1760885;81;20935;-70
2022/01/20 08:50:32;;;;;;;888.10;467.27;;;;;;;-0.57;100.00;98655.22;1756558;81;21391;-70
2022/01/20 08:53:00;;;;;;;251.07;85.20;;;;;;;-0.69;100.00;98634.73;1761108;81;20979;-71
2022/01/20 08:55:27;;;;;;;212.50;82.13;;;;;;;-0.40;100.00;98617.38;1761079;81;21240;-71
2022/01/20 08:57:56;;;;;;;185.05;71.00;;;;;;;-0.46;100.00;98640.11;1760702;81;21534;-72
2022/01/20 09:00:26;;;;;;;155.18;56.77;;;;;;;-0.29;100.00;98628.11;1760765;80;21489;-71
2022/01/20 09:03:01;;;;;;;248.25;84.32;;;;;;;-0.01;100.00;98623.06;1764158;81;21011;-71
2022/01/20 09:05:27;;;;;;;206.87;66.15;;;;;;;-0.16;100.00;98617.23;1765899;80;21402;-70
2022/01/20 09:08:12;;;;;;;167.13;53.60;;;;;;;-0.11;100.00;98608.19;1729597;83;20969;-72
2022/01/20 09:10:45;;;;;;;186.67;51.15;;;;;;;-0.33;100.00;98601.84;1729714;83;23118;-70
2022/01/20 09:15:57;;;;;;;224.20;66.95;;;;;;;-0.74;100.00;98604.23;1729386;83;21037;-71
2022/01/20 09:18:28;;;;;;;175.53;56.00;;;;;;;-0.60;100.00;98571.28;1728492;83;21850;-71
2022/01/20 09:20:56;;;;;;;36.50;18.10;;;;;;;-0.27;100.00;98577.78;1729807;83;21474;-70
2022/01/20 09:23:23;;;;;;;;;;;;;;;-0.16;100.00;98574.52;1732160;83;21183;-71
2022/01/20 09:25:51;;;;;;;64.92;27.00;;;;;;;-0.14;100.00;98566.41;1730004;83;20500;-71
2022/01/20 09:28:18;;;;;;;93.62;31.35;;;;;;;0.06;100.00;98548.66;1729701;83;28154;-71
2022/01/20 09:30:46;;;;;;;81.42;35.43;;;;;;;-0.04;100.00;98546.47;1729710;83;21463;-70
2022/01/20 09:33:24;;;;;;;131.93;46.63;;;;;;;0.05;100.00;98536.98;1729707;83;20930;-71
2022/01/20 09:35:45;;;;;;;132.07;63.60;;;;;;;0.26;100.00;98536.67;1728437;83;21518;-71
2022/01/20 09:38:12;;;;;;;48.28;24.07;;;;;;;0.80;100.00;98543.22;1729516;83;20976;-71
2022/01/20 09:40:40;;;;;;;60.63;33.00;;;;;;;0.92;100.00;98542.02;1729708;83;20953;-71
2022/01/20 09:43:10;;;;;;;54.60;30.08;;;;;;;1.05;100.00;98533.98;1729597;83;21039;-71
2022/01/20 09:45:38;;;;;;;26.02;13.58;;;;;;;1.15;99.48;98540.11;1729740;83;21079;-71
2022/01/20 09:48:06;;;;;;;26.07;16.00;;;;;;;1.34;96.74;98532.98;1729666;83;21128;-70
2022/01/20 09:50:40;;;;;;;46.02;33.78;;;;;;;1.18;97.24;98533.58;1708716;83;20989;-71
2022/01/20 09:53:09;;;;;;;31.87;14.47;;;;;;;1.30;96.01;98527.86;1727664;83;21554;-72
2022/01/20 09:55:37;;;;;;;48.28;35.15;;;;;;;1.36;95.22;98521.69;1722354;81;21541;-71
2022/01/20 09:58:06;;;;;;;40.58;27.27;;;;;;;1.36;96.60;98534.91;1730264;81;21035;-72
2022/01/20 10:00:32;;;;;;;24.67;15.75;;;;;;;1.59;96.03;98522.34;1713104;83;21154;-70
2022/01/20 10:03:09;;;;;;;24.95;14.68;;;;;;;1.33;94.80;98517.36;1756803;81;20927;-71
2022/01/20 10:05:43;;;;;;;19.70;12.10;;;;;;;1.61;93.98;98524.27;1757300;81;20959;-71
2022/01/20 10:08:23;;;;;;;25.40;15.72;;;;;;;1.62;94.92;98513.99;1756844;81;21599;-70
2022/01/20 10:11:01;;;;;;;32.75;19.55;;;;;;;1.29;97.91;98521.75;1755293;81;21034;-71
2022/01/20 10:13:39;;;;;;;33.10;17.60;;;;;;;1.17;100.00;98513.44;1747056;81;21124;-73
2022/01/20 10:16:19;;;;;;;21.60;12.58;;;;;;;0.99;100.00;98501.01;1727821;83;21581;-69
2022/01/20 10:18:54;;;;;;;18.75;10.50;;;;;;;0.91;100.00;98498.13;1728795;83;20987;-70
2022/01/20 10:21:32;;;;;;;20.88;11.88;;;;;;;0.81;100.00;98482.77;1728582;83;21019;-72
2022/01/20 10:24:10;;;;;;;20.40;12.07;;;;;;;0.67;100.00;98499.75;1727212;83;20955;-71
2022/01/20 10:26:40;;;;;;;18.70;11.00;;;;;;;0.61;100.00;98480.30;1693715;83;26822;-70
2022/01/20 10:29:09;;;;;;;17.95;11.10;;;;;;;0.53;100.00;98479.23;1714181;82;21149;-70
2022/01/20 10:31:45;;;;;;;;;;;;;;;0.50;100.00;98472.27;1734881;82;20920;-70
2022/01/20 10:34:32;;;;;;;19.82;10.82;;;;;;;0.46;100.00;98476.34;1732010;82;20566;-73
2022/01/20 10:37:26;;;;;;;38.90;17.62;;;;;;;0.44;100.00;98462.02;1738663;81;21070;-71
2022/01/20 10:40:12;;;;;;;23.42;12.15;;;;;;;0.42;100.00;98462.78;1722616;83;21772;-73
2022/01/20 10:42:45;;;;;;;31.50;17.30;;;;;;;0.36;100.00;98448.58;1742595;82;20989;-71
2022/01/20 10:45:27;;;;;;;36.77;19.10;;;;;;;0.35;100.00;98453.58;1735535;82;20936;-69
2022/01/20 10:47:58;;;;;;;39.95;19.92;;;;;;;0.32;100.00;98454.02;1728968;83;21015;-76
2022/01/20 10:50:31;;;;;;;43.30;19.60;;;;;;;0.35;100.00;98458.05;1728952;83;20936;-72
2022/01/20 10:53:00;;;;;;;40.70;21.65;;;;;;;0.36;100.00;98451.74;1722381;82;21856;-67
2022/01/20 10:55:31;;;;;;;28.07;16.25;;;;;;;0.31;100.00;98448.94;1758673;81;21438;-71
2022/01/20 10:58:17;;;;;;;26.80;15.05;;;;;;;0.26;100.00;98440.86;1764923;81;20935;-74
2022/01/20 11:00:48;;;;;;;18.48;10.35;;;;;;;0.27;100.00;98447.25;1761729;81;20967;-75
2022/01/20 11:03:17;;;;;;;27.98;14.78;;;;;;;0.26;100.00;98430.30;1711350;82;21107;-72
2022/01/20 11:05:49;;;;;;;32.55;16.67;;;;;;;0.31;100.00;98433.91;1753489;80;21155;-73
2022/01/20 11:08:16;;;;;;;26.05;16.57;;;;;;;0.29;100.00;98429.34;1752442;81;21473;-71
2022/01/20 11:10:45;;;;;;;27.17;16.10;;;;;;;0.32;100.00;98426.78;1733076;81;20858;-73
2022/01/20 11:13:33;;;;;;;25.85;13.10;;;;;;;0.32;100.00;98416.23;1736594;81;21046;-73
2022/01/20 11:16:00;;;;;;;21.23;11.03;;;;;;;0.29;100.00;98409.55;1746914;81;21070;-73
2022/01/20 11:18:28;;;;;;;24.67;13.58;;;;;;;0.27;100.00;98395.78;1740551;81;21040;-72
2022/01/20 11:20:56;;;;;;;23.73;14.13;;;;;;;0.30;100.00;98417.78;1705613;82;21113;-72
2022/01/20 11:23:42;;;;;;;28.80;15.88;;;;;;;0.31;100.00;98405.39;1715502;82;20956;-73
2022/01/20 11:26:20;;;;;;;23.15;13.08;;;;;;;0.25;100.00;98402.30;1671412;83;21023;-70
2022/01/20 11:29:04;;;;;;;23.87;13.05;;;;;;;0.28;100.00;98407.14;1717905;83;20980;-68
2022/01/20 11:31:39;;;;;;;19.57;12.10;;;;;;;0.28;100.00;98390.79;1703830;83;21131;-68
2022/01/20 11:34:16;;;;;;;33.73;16.32;;;;;;;0.42;100.00;98404.18;1712564;81;21047;-70
2022/01/20 11:36:43;;;;;;;22.35;14.30;;;;;;;0.47;100.00;98402.22;1715373;82;20965;-70
2022/01/20 11:39:10;;;;;;;22.05;14.07;;;;;;;0.49;100.00;98390.93;1716578;83;21082;-71
2022/01/20 11:41:46;;;;;;;19.65;13.00;;;;;;;0.51;100.00;98388.05;1709140;82;21165;-72
2022/01/20 11:44:22;;;;;;;19.40;10.15;;;;;;;0.48;100.00;98378.73;1711063;82;21180;-72
2022/01/20 11:46:50;;;;;;;17.87;11.70;;;;;;;0.40;100.00;98367.95;1715087;82;20940;-70
2022/01/20 11:49:22;;;;;;;20.90;13.70;;;;;;;0.38;100.00;98376.59;1709851;83;21083;-71
2022/01/20 11:51:56;;;;;;;19.00;11.97;;;;;;;0.39;100.00;98374.27;1715500;83;21163;-70
2022/01/20 11:54:41;;;;;;;18.65;10.38;;;;;;;0.36;100.00;98373.88;1718361;83;21039;-69
2022/01/20 11:57:15;;;;;;;22.98;13.45;;;;;;;0.33;100.00;98383.03;1712458;82;21128;-67
2022/01/20 11:59:55;;;;;;;16.67;11.40;;;;;;;0.38;100.00;98375.78;1719608;83;21133;-69
2022/01/20 12:02:38;;;;;;;19.60;10.90;;;;;;;0.38;100.00;98374.47;1741101;82;28690;-71
2022/01/20 12:05:28;;;;;;;16.57;12.82;;;;;;;0.35;100.00;98374.39;1721773;82;21143;-70
2022/01/20 12:08:17;;;;;;;24.02;18.73;;;;;;;0.36;100.00;98369.91;1724471;82;21017;-71
2022/01/20 12:10:58;;;;;;;103.85;53.73;;;;;;;0.36;100.00;98361.47;1697662;84;21184;-71
2022/01/20 12:13:26;;;;;;;18.55;12.18;;;;;;;0.36;100.00;98352.23;1745673;81;20951;-68
2022/01/20 12:15:58;;;;;;;20.08;14.70;;;;;;;0.38;100.00;98350.70;1705611;83;21599;-69
2022/01/20 12:18:26;;;;;;;18.52;10.32;;;;;;;0.40;100.00;98324.91;1737333;82;20981;-70
2022/01/20 12:20:53;;;;;;;19.35;13.25;;;;;;;0.42;100.00;98339.50;1720805;82;21076;-72
2022/01/20 12:23:24;;;;;;;19.75;14.03;;;;;;;0.46;100.00;98334.58;1742020;82;21855;-72
2022/01/20 12:25:49;;;;;;;15.35;9.53;;;;;;;0.46;100.00;98331.14;1741740;81;21065;-74
2022/01/20 12:28:16;;;;;;;32.70;18.45;;;;;;;0.45;100.00;98336.13;1742017;82;20942;-72
2022/01/20 12:30:50;;;;;;;117.10;54.95;;;;;;;0.39;100.00;98326.75;1742053;82;21061;-69
2022/01/20 12:33:19;;;;;;;82.95;44.00;;;;;;;0.38;100.00;98335.67;1741916;82;21005;-68